METAR Data
IDs: Format: Raw Decoded Include TAF

Data at: 1833 UTC 21 Sep 2018

KHYI 211822Z 19009KT 10SM SCT027 SCT035 31/24 A2994 RMK AO2 $
KHYI 211756Z 20009KT 10SM BKN023 29/24 A2996 RMK AO2 SLP135 P0001 60006 T02940244 10300 20250 58004 $
KHYI 211719Z 17012KT 10SM FEW020 SCT025 SCT031 29/26 A2997 RMK AO2 P0001 $
KHYI 211711Z 17011KT 10SM SCT020 BKN025 BKN031 28/27 A2997 RMK AO2 P0001 $
KHYI 211656Z 18010KT 2 1/2SM HZ BKN018 28/25 A2998 RMK AO2 SLP142 P0005 T02830250 $
KHYI 211631Z 17009KT 10SM BKN018 29/25 A2998 RMK AO2 $
KHYI 211541Z 17011KT 10SM FEW013 SCT019 BKN042 27/25 A2998 RMK AO2 $
KHYI 211503Z 17010KT 10SM BR BKN013 BKN019 BKN027 27/25 A2997 RMK AO2 $
KHYI 211456Z 18009KT 5SM BR BKN008 BKN017 BKN027 27/25 A2997 RMK AO2 SLP138 60000 T02670250 51010 $
KHYI 211407Z 17007KT 5SM BR BKN006 OVC010 26/25 A2996 RMK AO2 CIG 004V008 $
KHYI 211356Z 17008KT 5SM BR OVC004 26/25 A2996 RMK AO2 CIG 003V008 SLP135 T02560250 $
KHYI 211256Z 15005KT 4SM BR OVC004 26/25 A2995 RMK AO2 DZE38 SLP131 P0000 T02560250 $
KHYI 211156Z 15006KT 5SM -DZ BR OVC004 25/25 A2994 RMK AO2 DZB47 SLP128 P0000 60000 70051 T02500250 10256 20250 53001 $
KHYI 211056Z AUTO 16006KT 10SM OVC004 25/24 A2993 RMK AO2 SLP126 T02500244 $
KHYI 210956Z AUTO 16007KT 10SM BKN006 OVC010 26/24 A2993 RMK AO2 SLP125 T02560244 $
KHYI 210856Z AUTO 17008KT 10SM OVC006 25/24 A2993 RMK AO2 SLP126 T02500244 58005 $
KHYI 210843Z AUTO 17006KT 10SM OVC006 25/24 A2993 RMK AO2 CIG 004V008 $
KHYI 210756Z AUTO 16005KT 9SM OVC004 25/24 A2994 RMK AO2 SLP130 T02500244 $
KHYI 210723Z AUTO 15005KT 9SM OVC004 25/24 A2994 RMK AO2 CIG 004V009 $
KHYI 210656Z AUTO 16005KT 10SM OVC006 25/24 A2995 RMK AO2 SLP132 T02500244 $
KHYI 210556Z AUTO 17005KT 10SM OVC006 24/24 A2995 RMK AO2 SLP131 60003 T02440239 10244 20239 403280228 58003 $
KHYI 210527Z AUTO 15005KT 10SM BKN008 24/24 A2995 RMK AO2 $
KHYI 210456Z AUTO 14006KT 10SM FEW008 24/24 A2995 RMK AO2 SLP135 P0001 T02440239 $
KHYI 210356Z AUTO 15006KT 10SM FEW019 BKN120 24/24 A2997 RMK AO2 SLP138 P0002 T02440239 $
KHYI 210256Z AUTO 13003KT 10SM FEW120 24/24 A2996 RMK AO2 LTG DSNT SW AND W SLP135 T02440239 53016 $
KHYI 210207Z AUTO 10003KT 10SM SCT009 24/24 A2994 RMK AO2 LTG DSNT SW $
KHYI 210156Z AUTO 10003KT 10SM BKN009 24/23 A2993 RMK AO2 LTG DSNT SW SLP127 T02390233 $
KHYI 210144Z AUTO 10003KT 10SM BKN009 24/23 A2993 RMK AO2 $
KHYI 210135Z AUTO 09003KT 10SM BKN011 24/23 A2993 RMK AO2 $
KHYI 210056Z AUTO 10003KT 10SM CLR 24/23 A2992 RMK AO2 SLP123 T02390233 $
KHYI 202356Z AUTO 12004KT 10SM FEW019 SCT025 24/23 A2991 RMK AO2 SLP120 P0002 60046 T02390228 10328 20228 50008 $
KHYI 202256Z 13005KT 10SM FEW027 BKN041 OVC050 23/23 A2992 RMK AO2 SLP122 P0006 T02330228 $
KHYI 202156Z 14010KT 4SM BR FEW024 BKN034 OVC047 23/22 A2991 RMK AO2 PK WND 16033/2101 LTG DSNT NW TSB17E52RAB17E52 SLP121 P0038 T02280222 $
KHYI 202120Z 17021G29KT 2 1/2SM TSRA FEW025 BKN038 OVC047 24/21 A2991 RMK AO2 PK WND 16033/2101 VIS 1V5 LTG DSNT E AND W TSB17RAB17 P0002 $
KHYI 202056Z 14014KT 10SM SCT038 33/23 A2989 RMK AO2 LTG DSNT E-SW TSE08 SLP110 T03280233 56024 $
KHYI 202014Z 23005KT 10SM SCT035 32/24 A2990 RMK AO2 TSE08 $
KHYI 201956Z 22008KT 10SM TS BKN035 BKN043 29/23 A2991 RMK AO2 LTG DSNT SE AND NW TSB30 SLP118 T02940228 $
KHYI 201930Z 15008KT 10SM VCTS BKN031 31/23 A2991 RMK AO2 LTG DSNT NW TSB30 $
KHYI 201856Z 15010KT 10SM BKN027 31/24 A2993 RMK AO2 LTG DSNT W SLP125 T03110239 $
KHYI 201756Z 16009KT 10SM SCT024 BKN033 31/24 A2996 RMK AO2 LTG DSNT NW SLP135 60002 T03110244 10311 20239 58008 $
KHYI 201722Z 19009KT 10SM BKN016 BKN021 29/24 A2998 RMK AO2 LTG DSNT N AND NE $
KHYI 201656Z 15010KT 10SM BKN014 28/26 A2998 RMK AO2 LTG DSNT NE SLP145 T02830256 $
KHYI 201603Z 16006KT 10SM FEW008 26/24 A2999 RMK AO2 $
KHYI 201556Z 16007KT 10SM SCT008 BKN022 27/25 A2999 RMK AO2 TSB04E48RAB33E48 SLP147 P0002 T02670250 $
KHYI 201550Z 16007KT 6SM BR SCT007 SCT012 BKN021 27/25 A2999 RMK AO2 TSB04E48RAB33E48 P0002 $
KHYI 201527Z 16009KT 8SM VCTS OVC007 27/25 A2999 RMK AO2 TSB04 $
KHYI 201520Z 15007KT 10SM VCTS OVC005 27/25 A2999 RMK AO2 LTG DSNT SE TSB04 $
KHYI 201510Z 16006KT 10SM TS OVC005 27/24 A2999 RMK AO2 LTG DSNT SE AND S TSB04 $
KHYI 201503Z 14006KT 10SM BKN005 26/24 A2998 RMK AO2 LTG DSNT S $
KHYI 201456Z 14006KT 6SM BKN003 BKN032 26/24 A2998 RMK AO2 LTG DSNT S SLP143 T02610244 52013 $
KHYI 201356Z 14004KT 5SM BR OVC003 24/24 A2998 RMK AO2 SLP141 T02440239 $
KHYI 201330Z 13004KT 5SM BR OVC003 24/24 A2996 RMK AO2 $
KHYI 201320Z 12003KT 5SM BR OVC005 24/24 A2996 RMK AO2 CIG 003V009 $
KHYI 201307Z 13004KT 5SM BR OVC007 24/24 A2996 RMK AO2 CIG 003V011 $
KHYI 201306Z 13004KT 5SM BR OVC007 24/24 A2996 RMK AO2 CIG 003V011 $
KHYI 201303Z 13003KT 9SM BR BKN007 24/23 A2996 RMK AO2 CIG 003V011 $
KHYI 201256Z 13003KT 5SM BR BKN004 OVC010 24/23 A2996 RMK AO2 SLP133 T02440233 $
KHYI 201240Z 12004KT 5SM BR BKN004 OVC010 24/23 A2996 RMK AO2 $
KHYI 201210Z 12004KT 10SM BKN009 BKN014 24/23 A2995 RMK AO2 CIG 006V011 $
KHYI 201203Z 14004KT 10SM BKN011 BKN016 24/23 A2995 RMK AO2 CIG 007V013 $
KHYI 201156Z 13004KT 10SM BKN008 BKN016 24/23 A2995 RMK AO2 SLP132 T02390233 10250 20239 53001 $
KHYI 201056Z AUTO 10003KT 10SM BKN008 OVC012 24/23 A2994 RMK AO2 CIG 007V011 SLP130 T02440228 $
KHYI 200956Z AUTO 16003KT 10SM OVC006 24/23 A2994 RMK AO2 SLP129 T02440233 $
KHYI 200928Z AUTO 18003KT 10SM OVC008 24/23 A2994 RMK AO2 $
KHYI 200856Z AUTO 15004KT 10SM BKN010 24/23 A2994 RMK AO2 SLP130 T02440228 58010 $
KHYI 200756Z AUTO 09004KT 10SM OVC010 24/23 A2996 RMK AO2 SLP137 T02440228 $
KHYI 200730Z AUTO 10003KT 10SM BKN012 24/22 A2997 RMK AO2 $
KHYI 200656Z AUTO 00000KT 10SM CLR 25/22 A2997 RMK AO2 SLP139 T02500222 $